createdAt,value
2023-04-27T00:01:27.898Z,21.67
2023-04-27T00:04:13.314Z,21.85
2023-04-27T00:06:58.771Z,21.72
2023-04-27T00:09:44.006Z,21.89
2023-04-27T00:12:29.449Z,21.86
2023-04-27T00:15:14.654Z,21.66
2023-04-27T00:18:00.255Z,21.68
2023-04-27T00:20:45.611Z,21.81
2023-04-27T00:23:30.922Z,21.82
2023-04-27T00:26:16.270Z,21.80
2023-04-27T00:29:01.602Z,21.88
2023-04-27T00:31:47.163Z,21.90
2023-04-27T00:34:32.489Z,21.85
2023-04-27T00:37:17.740Z,21.81
2023-04-27T00:40:03.135Z,21.80
2023-04-27T00:42:48.639Z,21.93
2023-04-27T00:45:35.769Z,21.83
2023-04-27T00:48:20.851Z,21.86
2023-04-27T00:51:06.225Z,21.90
2023-04-27T00:53:51.752Z,21.89
2023-04-27T00:56:37.169Z,21.75
2023-04-27T00:59:22.578Z,21.60
2023-04-27T01:02:07.880Z,21.77
2023-04-27T01:04:53.310Z,21.84
2023-04-27T01:07:38.562Z,21.90
2023-04-27T01:10:23.962Z,21.74
2023-04-27T01:13:09.468Z,21.81
2023-04-27T01:15:54.938Z,21.73
2023-04-27T01:18:40.317Z,21.91
2023-04-27T01:21:32.286Z,21.78
2023-04-27T01:24:17.392Z,21.89
2023-04-27T01:27:02.846Z,21.87
2023-04-27T01:29:48.250Z,21.92
2023-04-27T01:32:33.541Z,21.89
2023-04-27T01:35:18.775Z,21.95
2023-04-27T01:38:04.078Z,21.81
2023-04-27T01:40:49.477Z,21.84
2023-04-27T01:43:34.994Z,21.77
2023-04-27T01:46:20.312Z,21.85
2023-04-27T01:49:05.678Z,21.97
2023-04-27T01:51:51.091Z,21.96
2023-04-27T01:54:36.508Z,21.94
2023-04-27T01:57:21.312Z,21.91
2023-04-27T02:00:06.737Z,21.81
2023-04-27T02:02:52.323Z,21.83
2023-04-27T02:05:37.306Z,21.77
2023-04-27T02:08:22.394Z,21.82
2023-04-27T02:11:07.699Z,21.87
2023-04-27T02:13:53.064Z,21.95
2023-04-27T02:16:38.497Z,21.91
2023-04-27T02:19:23.849Z,21.91
2023-04-27T02:22:09.433Z,21.88
2023-04-27T02:24:54.921Z,21.92
2023-04-27T02:27:40.335Z,21.78
2023-04-27T02:30:26.342Z,21.78
2023-04-27T02:33:11.590Z,21.79
2023-04-27T02:35:57.190Z,21.79
2023-04-27T02:38:42.564Z,21.72
2023-04-27T02:41:28.148Z,21.75
2023-04-27T02:44:13.561Z,21.81
2023-04-27T02:46:59.059Z,21.84
2023-04-27T02:49:44.429Z,21.76
2023-04-27T02:52:29.489Z,21.79
2023-04-27T02:55:14.691Z,21.73
2023-04-27T02:58:00.030Z,21.73
2023-04-27T03:00:45.610Z,21.68
2023-04-27T03:03:31.250Z,21.79
2023-04-27T03:06:16.316Z,21.78
2023-04-27T03:09:01.592Z,21.81
2023-04-27T03:11:47.037Z,21.83
2023-04-27T03:14:32.278Z,21.82
2023-04-27T03:17:17.586Z,21.78
2023-04-27T03:20:02.782Z,21.75
2023-04-27T03:22:48.276Z,21.75
2023-04-27T03:25:33.623Z,21.78
2023-04-27T03:28:18.993Z,21.69
2023-04-27T03:31:04.336Z,21.92
2023-04-27T03:33:49.570Z,21.81
2023-04-27T03:36:34.911Z,21.85
2023-04-27T03:39:20.292Z,21.70
2023-04-27T03:42:05.948Z,21.77
2023-04-27T03:44:51.285Z,21.79
2023-04-27T03:47:36.698Z,21.81
2023-04-27T03:50:21.782Z,21.83
2023-04-27T03:53:07.024Z,21.80
2023-04-27T03:55:52.467Z,21.69
2023-04-27T03:58:37.785Z,21.90
2023-04-27T04:01:23.101Z,21.76
2023-04-27T04:04:08.711Z,21.79
2023-04-27T04:06:53.950Z,21.66
2023-04-27T04:09:39.397Z,21.76
2023-04-27T04:12:24.722Z,21.64
2023-04-27T04:15:10.105Z,21.65
2023-04-27T04:17:55.063Z,21.68
2023-04-27T04:20:40.206Z,21.81
2023-04-27T04:23:25.444Z,21.68
2023-04-27T04:26:10.905Z,21.73
2023-04-27T04:28:56.128Z,21.67
2023-04-27T04:31:41.157Z,21.69
2023-04-27T04:34:26.687Z,21.76
2023-04-27T04:37:12.004Z,21.81
2023-04-27T04:39:57.484Z,21.68
2023-04-27T04:42:42.783Z,21.68
2023-04-27T04:45:28.957Z,21.77
2023-04-27T04:48:14.354Z,21.63
2023-04-27T04:50:59.683Z,21.68
2023-04-27T04:53:44.971Z,21.78
2023-04-27T04:56:30.250Z,21.66
2023-04-27T04:59:15.560Z,21.57
2023-04-27T05:02:01.359Z,21.70
2023-04-27T05:04:46.682Z,21.65
2023-04-27T05:07:31.999Z,21.47
2023-04-27T05:10:17.386Z,21.74
2023-04-27T05:13:03.484Z,21.71
2023-04-27T05:15:49.799Z,21.64
2023-04-27T05:18:35.158Z,21.57
2023-04-27T05:21:20.354Z,21.54
2023-04-27T05:24:05.646Z,21.47
2023-04-27T05:26:51.008Z,21.51
2023-04-27T05:29:36.355Z,21.56
2023-04-27T05:32:21.771Z,21.52
2023-04-27T05:35:07.239Z,21.46
2023-04-27T05:37:52.522Z,21.60
2023-04-27T05:40:37.835Z,21.61
2023-04-27T05:43:23.169Z,21.61
2023-04-27T05:46:08.321Z,21.47
2023-04-27T05:48:53.685Z,21.40
2023-04-27T05:51:38.928Z,21.36
2023-04-27T05:54:24.554Z,21.63
2023-04-27T05:57:09.615Z,21.82
2023-04-27T05:59:55.008Z,21.81
2023-04-27T06:02:40.522Z,21.47
2023-04-27T06:05:25.535Z,21.44
2023-04-27T06:08:10.617Z,21.34
2023-04-27T06:10:55.646Z,21.42
2023-04-27T06:13:40.938Z,21.60
2023-04-27T06:16:26.308Z,21.47
2023-04-27T06:19:11.870Z,21.48
2023-04-27T06:21:57.268Z,21.68
2023-04-27T06:24:42.564Z,21.64
2023-04-27T06:27:28.027Z,21.41
2023-04-27T06:30:13.309Z,21.46
2023-04-27T06:32:58.753Z,21.38
2023-04-27T06:35:46.481Z,21.44
2023-04-27T06:38:32.205Z,21.58
2023-04-27T06:41:17.742Z,21.60
2023-04-27T06:44:03.118Z,21.73
2023-04-27T06:46:48.283Z,21.85
2023-04-27T06:49:33.832Z,21.83
2023-04-27T06:52:19.189Z,21.87
2023-04-27T06:55:04.637Z,21.99
2023-04-27T06:57:50.137Z,21.75
2023-04-27T07:00:35.579Z,21.78
2023-04-27T07:03:21.414Z,21.94
2023-04-27T07:06:06.463Z,21.88
2023-04-27T07:08:51.959Z,21.73
2023-04-27T07:11:37.289Z,21.58
2023-04-27T07:14:22.832Z,21.55
2023-04-27T07:17:08.106Z,21.71
2023-04-27T07:19:53.319Z,21.68
2023-04-27T07:22:38.808Z,21.53
2023-04-27T07:25:24.250Z,21.50
2023-04-27T07:28:09.561Z,21.61
2023-04-27T07:30:54.691Z,21.67
2023-04-27T07:33:40.211Z,21.62
2023-04-27T07:36:25.728Z,21.67
2023-04-27T07:39:11.103Z,21.64
2023-04-27T07:41:56.534Z,21.60
2023-04-27T07:44:43.102Z,21.64
2023-04-27T07:47:28.544Z,21.77
2023-04-27T07:50:14.157Z,21.78
2023-04-27T07:52:59.529Z,21.63
2023-04-27T07:55:44.590Z,21.61
2023-04-27T07:58:29.925Z,21.66
2023-04-27T08:01:15.311Z,21.64
2023-04-27T08:04:00.838Z,21.62
2023-04-27T08:06:47.062Z,21.67
2023-04-27T08:09:32.540Z,21.70
2023-04-27T08:12:17.937Z,21.59
2023-04-27T08:15:03.294Z,21.70
2023-04-27T08:17:48.820Z,21.69
2023-04-27T08:20:34.182Z,21.67
2023-04-27T08:23:19.647Z,21.76
2023-04-27T08:26:04.623Z,21.78
2023-04-27T08:28:50.110Z,21.70
2023-04-27T08:31:35.772Z,21.75
2023-04-27T08:34:20.901Z,21.87
2023-04-27T08:37:06.272Z,21.75
2023-04-27T08:39:51.460Z,21.78
2023-04-27T08:42:36.759Z,21.88
2023-04-27T08:45:22.983Z,21.82
2023-04-27T08:48:08.376Z,21.78
2023-04-27T08:50:53.819Z,21.82
2023-04-27T08:53:39.153Z,21.86
2023-04-27T08:56:24.690Z,21.89
2023-04-27T08:59:10.038Z,21.95
2023-04-27T09:01:55.323Z,21.97
2023-04-27T09:04:40.897Z,21.90
2023-04-27T09:07:27.416Z,21.76
2023-04-27T09:10:13.701Z,21.70
2023-04-27T09:12:58.935Z,21.73
2023-04-27T09:15:46.267Z,21.89
2023-04-27T09:18:34.192Z,21.92
2023-04-27T09:21:19.452Z,21.80
2023-04-27T09:24:04.735Z,21.82
2023-04-27T09:26:50.101Z,21.82
2023-04-27T09:29:35.547Z,21.83
2023-04-27T09:32:21.110Z,21.86
2023-04-27T09:35:06.586Z,21.91
2023-04-27T09:37:51.842Z,21.89
2023-04-27T09:40:37.359Z,21.86
2023-04-27T09:43:22.794Z,21.81
2023-04-27T09:46:08.313Z,21.90
2023-04-27T09:48:53.544Z,22.02
2023-04-27T09:51:38.978Z,21.92
2023-04-27T09:54:24.433Z,21.89
2023-04-27T09:57:09.739Z,21.90
2023-04-27T09:59:55.216Z,21.86
2023-04-27T10:02:52.575Z,21.95
2023-04-27T10:05:40.249Z,21.83
2023-04-27T10:08:25.315Z,21.87
2023-04-27T10:11:10.785Z,21.84
2023-04-27T10:13:56.076Z,21.87
2023-04-27T10:16:41.315Z,21.76
2023-04-27T10:19:26.603Z,21.95
2023-04-27T10:22:11.988Z,21.84
2023-04-27T10:24:57.562Z,21.86
2023-04-27T10:27:42.924Z,21.91
2023-04-27T10:30:28.046Z,21.85
2023-04-27T10:33:13.536Z,21.80
2023-04-27T10:35:58.930Z,21.89
2023-04-27T10:38:44.448Z,21.99
2023-04-27T10:41:29.751Z,21.87
2023-04-27T10:44:15.268Z,21.77
2023-04-27T10:47:00.670Z,22.02
2023-04-27T10:49:46.049Z,22.05
2023-04-27T10:52:31.641Z,22.39
2023-04-27T10:55:17.007Z,22.36
2023-04-27T10:58:02.299Z,22.36
2023-04-27T11:00:47.716Z,22.42
2023-04-27T11:03:33.007Z,22.27
2023-04-27T11:06:18.481Z,22.29
2023-04-27T11:09:03.821Z,22.36
2023-04-27T11:11:49.335Z,22.41
2023-04-27T11:14:34.491Z,22.48
2023-04-27T11:17:19.990Z,22.38
2023-04-27T11:20:05.323Z,22.40
2023-04-27T11:22:50.758Z,22.22
2023-04-27T11:25:36.311Z,22.43
2023-04-27T11:28:21.595Z,22.39
2023-04-27T11:31:07.000Z,22.53
2023-04-27T11:33:52.220Z,22.53
2023-04-27T11:36:37.969Z,22.47
2023-04-27T11:39:23.444Z,22.55
2023-04-27T11:42:08.981Z,22.61
2023-04-27T11:44:54.422Z,22.49
2023-04-27T11:47:39.805Z,22.52
2023-04-27T11:50:25.240Z,22.45
2023-04-27T11:53:10.559Z,22.59
2023-04-27T11:55:55.805Z,22.55
2023-04-27T11:58:41.183Z,22.64
2023-04-27T12:01:36.905Z,22.69
2023-04-27T12:04:23.489Z,22.82
2023-04-27T12:07:08.551Z,22.72
2023-04-27T12:09:53.999Z,22.58
2023-04-27T12:12:39.431Z,22.64
2023-04-27T12:15:24.666Z,22.78
2023-04-27T12:18:10.172Z,22.56
2023-04-27T12:20:55.418Z,22.46
2023-04-27T12:23:40.399Z,22.44
2023-04-27T12:26:25.575Z,22.55
2023-04-27T12:29:10.998Z,22.82
2023-04-27T12:31:56.367Z,22.71
2023-04-27T12:34:41.746Z,22.44
2023-04-27T12:37:27.275Z,22.37
2023-04-27T12:40:12.435Z,22.55
2023-04-27T12:43:00.478Z,22.26
2023-04-27T12:45:46.107Z,22.54
2023-04-27T12:48:31.427Z,22.64
2023-04-27T12:51:16.797Z,22.20
2023-04-27T12:54:02.114Z,22.22
2023-04-27T12:56:47.599Z,22.36
2023-04-27T12:59:32.806Z,22.18
2023-04-27T13:02:18.179Z,22.16
2023-04-27T13:05:03.656Z,22.24
2023-04-27T13:07:48.816Z,21.96
2023-04-27T13:10:34.434Z,22.37
2023-04-27T13:13:19.726Z,22.39
2023-04-27T13:16:05.136Z,22.46
2023-04-27T13:18:50.553Z,22.62
2023-04-27T13:21:35.918Z,22.48
2023-04-27T13:24:21.473Z,22.28
2023-04-27T13:27:06.671Z,22.24
2023-04-27T13:29:52.196Z,22.45
2023-04-27T13:32:37.689Z,22.27
2023-04-27T13:35:22.821Z,22.37
2023-04-27T13:38:07.994Z,22.41
2023-04-27T13:40:53.348Z,22.55
2023-04-27T13:43:38.850Z,22.37
2023-04-27T13:46:24.373Z,22.30
2023-04-27T13:49:09.794Z,22.23
2023-04-27T13:51:55.208Z,22.16
2023-04-27T13:54:40.290Z,22.08
2023-04-27T13:57:25.796Z,22.08
2023-04-27T14:00:10.836Z,22.14
2023-04-27T14:02:56.597Z,22.08
2023-04-27T14:05:41.827Z,22.01
2023-04-27T14:08:27.211Z,22.08
2023-04-27T14:11:12.823Z,22.26
2023-04-27T14:13:58.158Z,22.24
2023-04-27T14:16:43.851Z,22.20
2023-04-27T14:19:29.073Z,22.13
2023-04-27T14:22:14.451Z,22.10
2023-04-27T14:24:59.903Z,22.03
2023-04-27T14:27:45.336Z,22.06
2023-04-27T14:30:30.720Z,22.10
2023-04-27T14:33:16.189Z,22.33
2023-04-27T14:36:01.565Z,22.33
2023-04-27T14:38:46.869Z,22.49
2023-04-27T14:41:32.179Z,22.64
2023-04-27T14:44:17.515Z,22.48
2023-04-27T14:47:02.811Z,22.61
2023-04-27T14:49:48.234Z,22.71
2023-04-27T14:52:34.128Z,22.97
2023-04-27T14:55:19.501Z,23.06
2023-04-27T14:58:05.172Z,22.98
2023-04-27T15:00:50.384Z,23.10
2023-04-27T15:03:36.022Z,23.35
2023-04-27T15:06:21.195Z,23.51
2023-04-27T15:09:06.647Z,23.50
2023-04-27T15:11:52.135Z,23.69
2023-04-27T15:14:37.448Z,23.71
2023-04-27T15:17:22.855Z,23.63
2023-04-27T15:20:08.272Z,23.66
2023-04-27T15:22:53.765Z,23.47
2023-04-27T15:25:39.051Z,23.65
2023-04-27T15:28:24.496Z,23.91
2023-04-27T15:31:09.898Z,23.92
2023-04-27T15:33:55.233Z,23.91
2023-04-27T15:36:40.848Z,24.12
2023-04-27T15:39:26.108Z,24.24
2023-04-27T15:42:11.453Z,24.51
2023-04-27T15:44:56.611Z,24.71
2023-04-27T15:47:41.982Z,24.94
2023-04-27T15:50:27.097Z,25.07
2023-04-27T15:53:12.369Z,25.02
2023-04-27T15:55:57.709Z,25.00
2023-04-27T15:58:43.204Z,25.06
2023-04-27T16:01:28.709Z,25.11
2023-04-27T16:04:14.176Z,25.27
2023-04-27T16:06:59.390Z,25.36
2023-04-27T16:09:44.542Z,25.29
2023-04-27T16:12:29.753Z,25.33
2023-04-27T16:15:15.226Z,25.39
2023-04-27T16:18:00.611Z,25.27
2023-04-27T16:20:45.748Z,25.19
2023-04-27T16:23:31.251Z,25.22
2023-04-27T16:26:16.517Z,24.96
2023-04-27T16:29:01.831Z,25.02
2023-04-27T16:31:47.248Z,25.13
2023-04-27T16:34:32.491Z,25.10
2023-04-27T16:37:17.914Z,25.04
2023-04-27T16:40:03.333Z,24.77
2023-04-27T16:42:48.702Z,24.44
2023-04-27T16:45:33.992Z,24.28
2023-04-27T16:48:19.362Z,24.28
2023-04-27T16:51:05.052Z,24.09
2023-04-27T16:53:50.199Z,23.89
2023-04-27T16:56:35.576Z,23.91
2023-04-27T16:59:20.751Z,23.84
2023-04-27T17:02:20.863Z,23.93
2023-04-27T17:05:09.396Z,23.70
2023-04-27T17:07:54.675Z,23.71
2023-04-27T17:10:40.072Z,23.63
2023-04-27T17:13:25.300Z,23.46
2023-04-27T17:16:10.809Z,23.43
2023-04-27T17:18:56.234Z,23.43
2023-04-27T17:21:41.620Z,23.74
2023-04-27T17:24:27.177Z,23.92
2023-04-27T17:27:12.606Z,24.46
2023-04-27T17:29:58.101Z,24.00
2023-04-27T17:32:43.253Z,23.77
2023-04-27T17:35:28.500Z,23.61
2023-04-27T17:38:13.890Z,23.50
2023-04-27T17:40:59.006Z,23.48
2023-04-27T17:43:44.327Z,23.37
2023-04-27T17:46:29.441Z,23.22
2023-04-27T17:49:15.065Z,23.07
2023-04-27T17:52:00.242Z,22.83
2023-04-27T17:54:45.282Z,22.65
2023-04-27T17:57:30.815Z,22.69
2023-04-27T18:00:16.130Z,22.79
2023-04-27T18:03:01.717Z,22.79
2023-04-27T18:05:46.761Z,22.84
2023-04-27T18:08:31.643Z,22.84
2023-04-27T18:11:16.757Z,22.66
2023-04-27T18:14:02.038Z,22.64
2023-04-27T18:16:47.490Z,22.70
2023-04-27T18:19:34.601Z,22.70
2023-04-27T18:22:19.698Z,22.53
2023-04-27T18:25:05.013Z,22.52
2023-04-27T18:27:50.313Z,22.61
2023-04-27T18:30:35.696Z,22.54
2023-04-27T18:33:21.038Z,22.45
2023-04-27T18:36:06.185Z,22.48
2023-04-27T18:38:54.754Z,22.35
2023-04-27T18:41:40.343Z,22.30
2023-04-27T18:44:25.598Z,22.29
2023-04-27T18:47:10.604Z,22.39
2023-04-27T18:49:56.024Z,22.41
2023-04-27T18:52:43.719Z,22.42
2023-04-27T18:55:30.035Z,22.45
2023-04-27T18:58:15.211Z,22.41
2023-04-27T19:01:00.762Z,22.37
2023-04-27T19:03:46.164Z,22.53
2023-04-27T19:06:31.554Z,22.36
2023-04-27T19:09:16.962Z,22.32
2023-04-27T19:12:03.388Z,22.38
2023-04-27T19:14:48.903Z,22.37
2023-04-27T19:17:34.502Z,22.29
2023-04-27T19:20:20.302Z,22.48
2023-04-27T19:23:07.723Z,22.29
2023-04-27T19:25:55.140Z,22.27
2023-04-27T19:28:42.729Z,22.43
2023-04-27T19:31:28.134Z,22.40
2023-04-27T19:34:13.329Z,22.19
2023-04-27T19:36:58.752Z,22.25
2023-04-27T19:39:43.968Z,22.42
2023-04-27T19:42:29.467Z,22.29
2023-04-27T19:45:14.800Z,22.38
2023-04-27T19:48:00.393Z,22.61
2023-04-27T19:50:45.718Z,22.79
2023-04-27T19:53:30.992Z,22.42
2023-04-27T19:56:16.606Z,22.64
2023-04-27T19:59:01.966Z,22.75
2023-04-27T20:01:47.513Z,22.70
2023-04-27T20:04:33.356Z,22.74
2023-04-27T20:07:22.037Z,22.73
2023-04-27T20:10:07.369Z,22.84
2023-04-27T20:12:56.563Z,22.65
2023-04-27T20:15:42.240Z,22.68
2023-04-27T20:18:28.043Z,22.81
2023-04-27T20:21:13.307Z,22.66
2023-04-27T20:23:58.679Z,22.55
2023-04-27T20:26:44.227Z,22.62
2023-04-27T20:29:29.570Z,22.59
2023-04-27T20:32:15.113Z,22.67
2023-04-27T20:35:02.077Z,22.68
2023-04-27T20:37:47.224Z,22.40
2023-04-27T20:40:32.531Z,22.41
2023-04-27T20:43:17.861Z,22.50
2023-04-27T20:46:03.328Z,22.50
2023-04-27T20:48:48.776Z,22.58
2023-04-27T20:51:34.081Z,22.52
2023-04-27T20:54:19.497Z,22.56
2023-04-27T20:57:04.726Z,22.55
2023-04-27T20:59:50.095Z,22.63
2023-04-27T21:02:35.597Z,22.61
2023-04-27T21:05:20.919Z,22.58
2023-04-27T21:08:06.080Z,22.48
2023-04-27T21:10:51.278Z,22.49
2023-04-27T21:13:36.787Z,22.51
2023-04-27T21:16:22.021Z,22.61
2023-04-27T21:19:07.213Z,22.51
2023-04-27T21:21:52.718Z,22.51
2023-04-27T21:24:37.970Z,22.53
2023-04-27T21:27:23.374Z,22.52
2023-04-27T21:30:08.806Z,22.62
2023-04-27T21:32:54.516Z,22.55
2023-04-27T21:35:39.868Z,22.58
2023-04-27T21:38:25.218Z,22.44
2023-04-27T21:41:10.292Z,22.54
2023-04-27T21:43:55.415Z,22.38
2023-04-27T21:46:40.893Z,22.26
2023-04-27T21:49:26.207Z,22.46
2023-04-27T21:52:11.667Z,22.52
2023-04-27T21:54:57.218Z,22.37
2023-04-27T21:57:42.253Z,22.54
2023-04-27T22:00:27.684Z,22.49
2023-04-27T22:03:13.277Z,22.40
2023-04-27T22:05:58.333Z,22.37
2023-04-27T22:08:43.938Z,22.42
2023-04-27T22:11:29.122Z,22.55
2023-04-27T22:14:14.753Z,22.52
2023-04-27T22:16:59.871Z,22.40
2023-04-27T22:19:45.865Z,22.43
2023-04-27T22:22:31.201Z,22.53
2023-04-27T22:25:16.404Z,22.41
2023-04-27T22:28:02.025Z,22.43
2023-04-27T22:30:47.248Z,22.35
2023-04-27T22:33:32.485Z,22.35
2023-04-27T22:36:17.677Z,22.32
2023-04-27T22:39:03.203Z,22.34
2023-04-27T22:41:48.611Z,22.32
2023-04-27T22:44:34.093Z,22.34
2023-04-27T22:47:19.725Z,22.44
2023-04-27T22:50:04.811Z,22.38
2023-04-27T22:52:50.138Z,22.44
2023-04-27T22:55:35.582Z,22.30
2023-04-27T22:58:21.063Z,22.31
2023-04-27T23:01:06.615Z,22.24
2023-04-27T23:03:51.917Z,22.37
2023-04-27T23:06:37.165Z,22.19
2023-04-27T23:09:22.482Z,22.27
2023-04-27T23:12:07.923Z,22.36
2023-04-27T23:14:53.361Z,22.35
2023-04-27T23:17:38.648Z,22.34
2023-04-27T23:20:28.708Z,22.42
2023-04-27T23:23:14.468Z,22.38
2023-04-27T23:25:59.838Z,22.21
2023-04-27T23:28:45.142Z,22.18
2023-04-27T23:31:30.512Z,22.24
2023-04-27T23:34:16.200Z,22.08
2023-04-27T23:37:01.861Z,22.01
2023-04-27T23:39:47.210Z,22.29
2023-04-27T23:42:32.604Z,22.16
2023-04-27T23:45:17.719Z,22.14
2023-04-27T23:48:03.249Z,22.41
2023-04-27T23:50:48.658Z,22.31
2023-04-27T23:53:34.004Z,22.32
2023-04-27T23:56:19.536Z,22.34
2023-04-27T23:59:04.888Z,22.33
